Palmyra, Iowa
Current Conditions -  °F | °C
As of 12:54 AM on Saturday 25 Oct 2014 (Local Time) from KDSM Reporting Station
Haze Haze  
Wind Chill: 55°   Ceiling: Unl
Heat Index: 55°   Visibility: 1mi
Dew Point: 53°   Wind: 0mph
Humidity: 93%   Direction: NA
Pressure: 29.97"   Gusts: NA
Location:  41.4707°N, 93.4797°W
Report Text: KDSM 250554Z 00000KT 1SM R31/P6000FT BR FEW002 13/12 A2997 RMK AO2 TWR VIS 3 SLP146 VIS W-NW 1/4 T01280117 10172 20122 402000106 50005 $
Loading
Personal Weather Stations






























Interactive Weather Map
Tropical Storm Tracking
New forecast layout! Learn more

10-Day Weather Forecast

Advertisements
Track Severe Weather on mobile